Time;durP1;ratioP1;P1;durP2;ratioP2;P2;SDS_P1;SDS_P2;PMS_P1;PMS_P2;Temp;Humidity;BMP_temperature;BMP_pressure;BME280_temperature;BME280_humidity;BME280_pressure;Samples;Min_cycle;Max_cycle;Signal;HPM_P1;HPM_P2
2022/08/22 00:00:20;;;;;;;44.28;13.70;;;;;;;;;;5046767;28;20037;-53
2022/08/22 00:02:54;;;;;;;37.70;14.57;;;;;;;;;;5047027;28;20128;-54
2022/08/22 00:05:59;;;;;;;35.90;13.73;;;;;;;;;;5046143;28;20041;-53
2022/08/22 00:08:41;;;;;;;30.45;13.55;;;;;;;;;;5047058;28;20041;-55
2022/08/22 00:11:11;;;;;;;33.92;13.85;;;;;;;;;;5047209;28;20490;-55
2022/08/22 00:13:52;;;;;;;28.45;14.85;;;;;;;;;;5049600;28;20127;-54
2022/08/22 00:16:59;;;;;;;31.13;14.90;;;;;;;;;;5047981;28;20121;-55
2022/08/22 00:19:32;;;;;;;34.38;15.10;;;;;;;;;;4989706;28;20089;-54
2022/08/22 00:22:19;;;;;;;35.58;14.73;;;;;;;;;;4988974;28;20141;-53
2022/08/22 00:25:06;;;;;;;30.58;14.20;;;;;;;;;;4984475;28;20070;-55
2022/08/22 00:27:53;;;;;;;33.85;15.13;;;;;;;;;;4988586;28;20057;-55
2022/08/22 00:30:21;;;;;;;33.42;16.58;;;;;;;;;;4988790;28;20034;-55
2022/08/22 00:32:49;;;;;;;48.03;17.50;;;;;;;;;;4988066;28;20078;-55
2022/08/22 00:35:22;;;;;;;45.08;17.25;;;;;;;;;;4987918;28;20058;-55
2022/08/22 00:37:57;;;;;;;30.83;14.63;;;;;;;;;;4989252;28;20054;-55
2022/08/22 00:40:39;;;;;;;51.92;17.58;;;;;;;;;;4988653;28;20056;-55
2022/08/22 00:43:33;;;;;;;30.52;16.17;;;;;;;;;;4988919;28;20097;-54
2022/08/22 00:46:05;;;;;;;38.25;15.10;;;;;;;;;;4988538;28;20073;-54
2022/08/22 00:48:50;;;;;;;36.05;16.92;;;;;;;;;;4987757;28;20065;-53
2022/08/22 00:51:25;;;;;;;38.53;17.17;;;;;;;;;;4988376;28;20042;-55
2022/08/22 00:54:03;;;;;;;45.97;18.08;;;;;;;;;;4987906;28;20559;-55
2022/08/22 00:56:47;;;;;;;42.95;18.00;;;;;;;;;;5031270;28;20091;-54
2022/08/22 00:59:16;;;;;;;49.15;18.33;;;;;;;;;;5048036;28;20110;-55
2022/08/22 01:01:52;;;;;;;40.20;17.40;;;;;;;;;;5050631;28;20045;-53
2022/08/22 01:04:28;;;;;;;33.45;15.68;;;;;;;;;;5046115;28;20574;-54
2022/08/22 01:06:55;;;;;;;33.47;15.90;;;;;;;;;;5046484;28;20059;-54
2022/08/22 01:09:35;;;;;;;33.60;14.50;;;;;;;;;;5046265;28;20057;-54
2022/08/22 01:12:10;;;;;;;37.08;15.70;;;;;;;;;;5044856;28;20102;-54
2022/08/22 01:14:55;;;;;;;49.80;16.77;;;;;;;;;;5045717;28;20458;-54
2022/08/22 01:17:31;;;;;;;29.20;14.02;;;;;;;;;;5046624;28;20049;-54
2022/08/22 01:20:16;;;;;;;39.33;14.82;;;;;;;;;;5045984;28;20052;-54
2022/08/22 01:22:54;;;;;;;28.63;15.48;;;;;;;;;;5048305;28;20029;-54
2022/08/22 01:25:26;;;;;;;38.15;15.55;;;;;;;;;;5046042;28;20374;-54
2022/08/22 01:27:56;;;;;;;41.55;14.68;;;;;;;;;;5045744;28;20041;-54
2022/08/22 01:30:43;;;;;;;40.13;15.48;;;;;;;;;;5045588;28;20513;-54
2022/08/22 01:33:12;;;;;;;30.95;14.48;;;;;;;;;;5046212;28;20124;-54
2022/08/22 01:35:58;;;;;;;25.63;14.40;;;;;;;;;;5042348;28;20486;-53
2022/08/22 01:38:37;;;;;;;27.60;14.98;;;;;;;;;;5046626;28;20041;-55
2022/08/22 01:41:03;;;;;;;36.95;15.40;;;;;;;;;;5046165;28;20054;-55
2022/08/22 01:43:45;;;;;;;38.67;16.20;;;;;;;;;;5046650;28;20139;-55
2022/08/22 01:46:41;;;;;;;32.78;15.38;;;;;;;;;;5045422;28;20060;-54
2022/08/22 01:49:20;;;;;;;26.67;14.50;;;;;;;;;;5044773;28;20071;-54
2022/08/22 01:51:55;;;;;;;50.13;17.15;;;;;;;;;;5044919;28;20437;-54
2022/08/22 01:54:46;;;;;;;32.10;15.07;;;;;;;;;;5045595;28;20064;-54
2022/08/22 01:57:13;;;;;;;29.83;14.02;;;;;;;;;;5045506;28;20112;-55
2022/08/22 01:59:42;;;;;;;30.20;14.20;;;;;;;;;;5045722;28;20045;-55
2022/08/22 02:02:22;;;;;;;40.03;16.48;;;;;;;;;;5048339;28;20493;-55
2022/08/22 02:04:58;;;;;;;32.05;14.85;;;;;;;;;;5049474;28;20041;-55
2022/08/22 02:07:43;;;;;;;33.42;15.45;;;;;;;;;;5048814;28;20141;-55
2022/08/22 02:10:39;;;;;;;28.63;14.45;;;;;;;;;;5045540;28;20504;-55
2022/08/22 02:13:11;;;;;;;21.98;14.05;;;;;;;;;;5045320;28;20124;-55
2022/08/22 02:15:38;;;;;;;28.65;14.30;;;;;;;;;;5045208;28;20044;-55
2022/08/22 02:18:05;;;;;;;44.17;16.25;;;;;;;;;;5044339;28;20115;-54
2022/08/22 02:20:40;;;;;;;30.52;14.65;;;;;;;;;;5044733;28;20052;-54
2022/08/22 02:23:19;;;;;;;39.47;16.42;;;;;;;;;;5051332;28;20477;-55
2022/08/22 02:25:54;;;;;;;31.38;14.18;;;;;;;;;;5052570;28;20045;-55
2022/08/22 02:28:31;;;;;;;39.78;15.30;;;;;;;;;;5048413;28;20047;-55
2022/08/22 02:31:05;;;;;;;33.75;14.63;;;;;;;;;;5048819;28;20044;-54
2022/08/22 02:33:48;;;;;;;36.63;15.15;;;;;;;;;;5048942;28;20041;-53
2022/08/22 02:36:17;;;;;;;30.92;14.50;;;;;;;;;;5045534;28;20067;-54
2022/08/22 02:39:06;;;;;;;42.28;16.48;;;;;;;;;;5048606;28;20242;-53
2022/08/22 02:41:44;;;;;;;29.17;15.63;;;;;;;;;;5054195;28;20065;-54
2022/08/22 02:44:26;;;;;;;41.80;17.05;;;;;;;;;;5051522;28;20044;-53
2022/08/22 02:47:02;;;;;;;42.95;17.58;;;;;;;;;;5052133;28;20049;-53
2022/08/22 02:49:35;;;;;;;37.90;17.58;;;;;;;;;;5048864;28;20059;-55
2022/08/22 02:52:38;;;;;;;31.77;15.43;;;;;;;;;;5048029;28;20041;-54
2022/08/22 02:55:07;;;;;;;55.10;17.00;;;;;;;;;;5039202;28;20053;-54
2022/08/22 02:57:37;;;;;;;22.48;12.93;;;;;;;;;;5048388;28;20053;-54
2022/08/22 03:00:13;;;;;;;40.58;14.80;;;;;;;;;;5047927;28;20549;-54
2022/08/22 03:02:58;;;;;;;32.73;13.03;;;;;;;;;;5048358;28;20045;-54
2022/08/22 03:05:27;;;;;;;47.80;14.88;;;;;;;;;;5048941;28;20055;-55
2022/08/22 03:07:54;;;;;;;28.35;12.30;;;;;;;;;;5053004;28;20069;-54
2022/08/22 03:10:21;;;;;;;26.65;12.50;;;;;;;;;;5048322;28;20072;-53
2022/08/22 03:12:48;;;;;;;41.35;13.70;;;;;;;;;;5047635;28;20047;-54
2022/08/22 03:15:20;;;;;;;22.60;11.48;;;;;;;;;;5047628;28;20598;-54
2022/08/22 03:18:02;;;;;;;31.65;11.77;;;;;;;;;;5047485;28;20063;-54
2022/08/22 03:20:38;;;;;;;25.87;13.40;;;;;;;;;;5047489;28;20485;-54
2022/08/22 03:23:09;;;;;;;49.15;14.20;;;;;;;;;;5047853;28;20140;-54
2022/08/22 03:25:48;;;;;;;28.23;12.30;;;;;;;;;;5052084;28;20053;-54
2022/08/22 03:28:17;;;;;;;36.83;12.52;;;;;;;;;;5047710;28;20067;-55
2022/08/22 03:31:04;;;;;;;135.63;17.05;;;;;;;;;;5047795;28;20041;-53
2022/08/22 03:33:30;;;;;;;32.78;12.38;;;;;;;;;;5037127;28;20075;-54
2022/08/22 03:36:00;;;;;;;41.88;14.25;;;;;;;;;;5043394;28;20041;-55
2022/08/22 03:38:29;;;;;;;28.20;12.68;;;;;;;;;;5048509;28;20456;-54
2022/08/22 03:41:01;;;;;;;31.83;13.02;;;;;;;;;;5052378;28;20107;-53
2022/08/22 03:43:51;;;;;;;22.47;11.70;;;;;;;;;;5047977;28;20063;-54
2022/08/22 03:46:28;;;;;;;29.75;12.07;;;;;;;;;;5042883;28;20628;-52
2022/08/22 03:49:12;;;;;;;25.77;12.15;;;;;;;;;;5046788;28;20061;-54
2022/08/22 03:51:44;;;;;;;39.70;13.55;;;;;;;;;;5046613;28;20091;-53
2022/08/22 03:54:25;;;;;;;30.90;12.82;;;;;;;;;;5046762;28;20045;-52
2022/08/22 03:56:57;;;;;;;50.85;14.98;;;;;;;;;;5046905;28;20040;-53
2022/08/22 03:59:35;;;;;;;33.00;11.85;;;;;;;;;;5047930;28;20030;-55
2022/08/22 04:02:08;;;;;;;46.28;13.70;;;;;;;;;;5047384;28;20076;-55
2022/08/22 04:05:13;;;;;;;29.08;11.27;;;;;;;;;;5051554;28;20110;-52
2022/08/22 04:07:44;;;;;;;53.70;14.60;;;;;;;;;;5050126;28;20040;-56
2022/08/22 04:10:30;;;;;;;24.10;12.50;;;;;;;;;;5047158;28;20045;-55
2022/08/22 04:13:13;;;;;;;27.92;12.90;;;;;;;;;;5046543;28;20526;-53
2022/08/22 04:15:43;;;;;;;32.05;13.70;;;;;;;;;;5046781;28;20044;-54
2022/08/22 04:18:15;;;;;;;45.47;14.48;;;;;;;;;;5046066;28;20148;-53
2022/08/22 04:21:01;;;;;;;35.10;12.98;;;;;;;;;;5046023;28;20494;-54
2022/08/22 04:23:47;;;;;;;51.88;14.98;;;;;;;;;;5046857;28;20060;-54
2022/08/22 04:26:19;;;;;;;44.13;13.70;;;;;;;;;;5047269;28;20520;-55
2022/08/22 04:28:49;;;;;;;53.15;14.73;;;;;;;;;;5049652;28;20545;-54
2022/08/22 04:31:20;;;;;;;37.22;15.52;;;;;;;;;;5050757;28;20045;-53
2022/08/22 04:33:55;;;;;;;58.50;17.08;;;;;;;;;;5046412;28;20047;-55
2022/08/22 04:36:21;;;;;;;43.70;14.32;;;;;;;;;;5042478;28;20116;-55
2022/08/22 04:38:51;;;;;;;136.55;20.05;;;;;;;;;;5046966;28;20044;-54
2022/08/22 04:41:23;;;;;;;55.35;13.32;;;;;;;;;;5048435;28;20041;-54
2022/08/22 04:43:54;;;;;;;1595.72;158.85;;;;;;;;;;5050005;28;20123;-55
2022/08/22 04:46:25;;;;;;;46.33;12.75;;;;;;;;;;5044904;28;20053;-55
2022/08/22 04:49:23;;;;;;;38.05;12.10;;;;;;;;;;5045416;28;20078;-54
2022/08/22 04:51:57;;;;;;;28.83;12.27;;;;;;;;;;5045733;28;20044;-53
2022/08/22 04:54:29;;;;;;;40.75;14.32;;;;;;;;;;5044287;28;20135;-54
2022/08/22 04:56:58;;;;;;;52.97;16.30;;;;;;;;;;5045906;28;20036;-55
2022/08/22 04:59:27;;;;;;;28.98;11.50;;;;;;;;;;5047401;28;20374;-56
2022/08/22 05:01:57;;;;;;;26.98;10.35;;;;;;;;;;5050784;28;20045;-55
2022/08/22 05:04:26;;;;;;;29.92;10.55;;;;;;;;;;5062706;28;20076;-55
2022/08/22 05:06:57;;;;;;;34.15;11.52;;;;;;;;;;5041336;28;20409;-55
2022/08/22 05:09:26;;;;;;;31.92;10.32;;;;;;;;;;5045841;28;20044;-55
2022/08/22 05:11:56;;;;;;;23.73;9.20;;;;;;;;;;5046063;28;20175;-56
2022/08/22 05:14:38;;;;;;;65.35;12.32;;;;;;;;;;5047547;28;20095;-56
2022/08/22 05:17:06;;;;;;;34.08;10.50;;;;;;;;;;5046044;28;20464;-56
2022/08/22 05:19:35;;;;;;;23.23;9.10;;;;;;;;;;5047157;28;20047;-55
2022/08/22 05:22:08;;;;;;;43.20;11.20;;;;;;;;;;5045741;28;20045;-54
2022/08/22 05:24:37;;;;;;;32.50;10.23;;;;;;;;;;5045131;28;20052;-55
2022/08/22 05:27:10;;;;;;;33.85;10.40;;;;;;;;;;5045685;28;20501;-55
2022/08/22 05:29:38;;;;;;;45.92;11.30;;;;;;;;;;5045818;28;20047;-55
2022/08/22 05:32:08;;;;;;;20.80;10.50;;;;;;;;;;5049946;28;20520;-55
2022/08/22 05:34:37;;;;;;;30.90;10.50;;;;;;;;;;5046739;28;20149;-55
2022/08/22 05:37:13;;;;;;;39.60;10.13;;;;;;;;;;5042317;28;20119;-55
2022/08/22 05:39:45;;;;;;;35.50;10.82;;;;;;;;;;5045377;28;20052;-56
2022/08/22 05:42:14;;;;;;;44.05;10.43;;;;;;;;;;5045595;28;20378;-56
2022/08/22 05:44:41;;;;;;;28.42;9.25;;;;;;;;;;5044708;28;20072;-56
2022/08/22 05:47:22;;;;;;;47.78;11.65;;;;;;;;;;5049407;28;20076;-55
2022/08/22 05:49:48;;;;;;;28.55;10.05;;;;;;;;;;5049091;28;20048;-55
2022/08/22 05:52:34;;;;;;;23.80;8.75;;;;;;;;;;5046124;28;20044;-55
2022/08/22 05:55:09;;;;;;;22.30;8.93;;;;;;;;;;5045623;28;20072;-56
2022/08/22 05:57:38;;;;;;;62.83;11.13;;;;;;;;;;5047216;28;20055;-55
2022/08/22 06:00:13;;;;;;;66.47;11.95;;;;;;;;;;5049997;28;20132;-55
2022/08/22 06:02:43;;;;;;;39.90;9.93;;;;;;;;;;5048800;28;20125;-56
2022/08/22 06:05:10;;;;;;;38.50;10.43;;;;;;;;;;5052488;28;20041;-56
2022/08/22 06:07:37;;;;;;;38.22;10.25;;;;;;;;;;5053261;28;20428;-56
2022/08/22 06:10:08;;;;;;;38.20;10.02;;;;;;;;;;5049276;28;20499;-56
2022/08/22 06:12:41;;;;;;;36.90;10.43;;;;;;;;;;5046191;28;20044;-64
2022/08/22 06:15:14;;;;;;;24.75;8.05;;;;;;;;;;5049252;28;20042;-65
2022/08/22 06:17:45;;;;;;;35.28;9.65;;;;;;;;;;5048964;28;20068;-65
2022/08/22 06:20:27;;;;;;;44.58;9.93;;;;;;;;;;5052629;28;20147;-65
2022/08/22 06:22:56;;;;;;;27.55;8.77;;;;;;;;;;5052968;28;20041;-65
2022/08/22 06:25:31;;;;;;;29.23;8.95;;;;;;;;;;5049193;28;20041;-65
2022/08/22 06:28:00;;;;;;;27.30;8.65;;;;;;;;;;5047876;28;20040;-65
2022/08/22 06:30:27;;;;;;;35.33;11.60;;;;;;;;;;5047363;28;20748;-65
2022/08/22 06:32:58;;;;;;;39.47;16.02;;;;;;;;;;5047244;28;20585;-65
2022/08/22 06:35:28;;;;;;;37.58;9.68;;;;;;;;;;5044143;28;20041;-65
2022/08/22 06:37:58;;;;;;;42.05;10.48;;;;;;;;;;5050936;28;20044;-65
2022/08/22 06:40:27;;;;;;;31.55;9.25;;;;;;;;;;5047212;28;20065;-66
2022/08/22 06:42:54;;;;;;;41.10;9.85;;;;;;;;;;5046596;28;20045;-66
2022/08/22 06:45:21;;;;;;;37.20;9.40;;;;;;;;;;5047803;28;20553;-65
2022/08/22 06:47:50;;;;;;;27.15;9.07;;;;;;;;;;5048741;28;20409;-65
2022/08/22 06:50:24;;;;;;;34.55;9.25;;;;;;;;;;5051186;28;20111;-65
2022/08/22 06:52:53;;;;;;;23.83;7.63;;;;;;;;;;5052185;28;20051;-65
2022/08/22 06:55:21;;;;;;;19.65;6.88;;;;;;;;;;5048972;28;20214;-65
2022/08/22 06:58:11;;;;;;;29.58;8.30;;;;;;;;;;5048425;28;20045;-65
2022/08/22 07:00:40;;;;;;;26.55;8.45;;;;;;;;;;5048455;28;20037;-65
2022/08/22 07:03:15;;;;;;;33.65;8.98;;;;;;;;;;5048360;28;20140;-65
2022/08/22 07:05:42;;;;;;;60.85;9.88;;;;;;;;;;5048628;28;20065;-65
2022/08/22 07:08:11;;;;;;;225.13;18.27;;;;;;;;;;5051296;28;20489;-65
2022/08/22 07:10:46;;;;;;;30.75;7.50;;;;;;;;;;5052127;28;20128;-65
2022/08/22 07:13:14;;;;;;;27.90;7.68;;;;;;;;;;5047759;28;20116;-65
2022/08/22 07:15:41;;;;;;;52.22;10.40;;;;;;;;;;5047954;28;20047;-65
2022/08/22 07:18:14;;;;;;;21.85;6.95;;;;;;;;;;5048638;28;20044;-66
2022/08/22 07:20:44;;;;;;;33.15;7.22;;;;;;;;;;5047887;28;20112;-65
2022/08/22 07:23:13;;;;;;;41.05;9.18;;;;;;;;;;5051345;28;20037;-64
2022/08/22 07:26:03;;;;;;;25.15;6.28;;;;;;;;;;5050121;28;20049;-65
2022/08/22 07:28:42;;;;;;;42.78;9.05;;;;;;;;;;5044537;28;20092;-65
2022/08/22 07:31:27;;;;;;;34.80;7.90;;;;;;;;;;5047832;28;20049;-65
2022/08/22 07:34:09;;;;;;;27.63;7.32;;;;;;;;;;5048010;28;20045;-65
2022/08/22 07:36:47;;;;;;;57.70;9.05;;;;;;;;;;5042880;28;20120;-65
2022/08/22 07:39:23;;;;;;;454.67;34.15;;;;;;;;;;5047627;28;20144;-66
2022/08/22 07:41:52;;;;;;;71.68;11.05;;;;;;;;;;5047134;28;20038;-65
2022/08/22 07:44:21;;;;;;;43.80;9.32;;;;;;;;;;5050025;28;20072;-65
2022/08/22 07:46:48;;;;;;;51.53;9.15;;;;;;;;;;5050511;28;20056;-65
2022/08/22 07:49:22;;;;;;;171.82;14.38;;;;;;;;;;5046849;28;20137;-65
2022/08/22 07:51:57;;;;;;;44.55;9.57;;;;;;;;;;5047563;28;20128;-65
2022/08/22 07:54:24;;;;;;;35.20;8.27;;;;;;;;;;5047577;28;20112;-65
2022/08/22 07:56:56;;;;;;;68.97;10.27;;;;;;;;;;5047083;28;20516;-65
2022/08/22 07:59:23;;;;;;;43.72;9.35;;;;;;;;;;5049228;28;20052;-65
2022/08/22 08:01:52;;;;;;;37.78;7.85;;;;;;;;;;5050302;28;20169;-65
2022/08/22 08:04:23;;;;;;;25.63;7.03;;;;;;;;;;5047226;28;20120;-66
2022/08/22 08:06:51;;;;;;;34.40;8.77;;;;;;;;;;5049160;28;20048;-66
2022/08/22 08:09:18;;;;;;;41.00;8.65;;;;;;;;;;5047060;28;20095;-66
2022/08/22 08:11:47;;;;;;;185.15;21.13;;;;;;;;;;5046881;28;20033;-66
2022/08/22 08:14:15;;;;;;;106.47;13.73;;;;;;;;;;5050361;28;20501;-65
2022/08/22 08:16:43;;;;;;;33.28;8.13;;;;;;;;;;5048762;28;20053;-65
2022/08/22 08:19:11;;;;;;;31.73;7.10;;;;;;;;;;5046799;28;20037;-66
2022/08/22 08:21:40;;;;;;;30.05;6.68;;;;;;;;;;5047345;28;20064;-66
2022/08/22 08:24:10;;;;;;;33.33;7.38;;;;;;;;;;5046557;28;20420;-65
2022/08/22 08:28:32;;;;;;;28.30;7.38;;;;;;;;;;5046820;28;20044;-66
2022/08/22 08:29:27;;;;;;;30.45;8.02;;;;;;;;;;5048109;28;20128;-66
2022/08/22 08:31:54;;;;;;;17.00;5.68;;;;;;;;;;5050387;28;20413;-65
2022/08/22 08:34:23;;;;;;;23.50;6.25;;;;;;;;;;5046586;28;20071;-66
2022/08/22 08:36:51;;;;;;;57.58;8.95;;;;;;;;;;5041920;28;20128;-66
2022/08/22 08:39:22;;;;;;;17.73;5.95;;;;;;;;;;5046714;28;20064;-65
2022/08/22 08:42:07;;;;;;;31.20;7.38;;;;;;;;;;5046208;28;20041;-65
2022/08/22 08:44:46;;;;;;;18.25;6.05;;;;;;;;;;5047518;28;20041;-65
2022/08/22 08:47:20;;;;;;;49.10;9.18;;;;;;;;;;5046905;28;20223;-65
2022/08/22 08:49:47;;;;;;;27.27;6.78;;;;;;;;;;5049548;28;20061;-65
2022/08/22 08:52:26;;;;;;;30.45;6.90;;;;;;;;;;5046370;28;20051;-65
2022/08/22 08:55:05;;;;;;;18.30;5.53;;;;;;;;;;5046513;28;20106;-66
2022/08/22 08:57:59;;;;;;;35.10;7.80;;;;;;;;;;5045888;28;20487;-66
2022/08/22 09:00:32;;;;;;;19.63;6.82;;;;;;;;;;5046378;28;20040;-65
2022/08/22 09:03:37;;;;;;;23.20;7.32;;;;;;;;;;5046467;28;20039;-66
2022/08/22 09:06:15;;;;;;;26.23;7.00;;;;;;;;;;5004524;28;20042;-66
2022/08/22 09:08:56;;;;;;;21.77;6.72;;;;;;;;;;5007657;28;20042;-66
2022/08/22 09:11:33;;;;;;;37.65;8.07;;;;;;;;;;4997179;28;20145;-65
2022/08/22 09:14:13;;;;;;;15.80;5.10;;;;;;;;;;4989466;28;20094;-66
2022/08/22 09:16:58;;;;;;;58.22;8.68;;;;;;;;;;4991158;28;20050;-65
2022/08/22 09:19:36;;;;;;;935.15;87.25;;;;;;;;;;4993158;28;20545;-66
2022/08/22 09:22:18;;;;;;;25.85;7.38;;;;;;;;;;4992453;28;20050;-66
2022/08/22 09:25:03;;;;;;;19.08;5.82;;;;;;;;;;4992503;28;20050;-65
2022/08/22 09:27:45;;;;;;;29.42;6.60;;;;;;;;;;4992278;28;20087;-66
2022/08/22 09:30:14;;;;;;;29.23;6.85;;;;;;;;;;4992456;28;20089;-65
2022/08/22 09:32:59;;;;;;;44.17;9.32;;;;;;;;;;4997686;28;20570;-65
2022/08/22 09:35:44;;;;;;;30.25;7.07;;;;;;;;;;4999299;28;20073;-66
2022/08/22 09:38:24;;;;;;;23.58;6.25;;;;;;;;;;5053813;28;20053;-66
2022/08/22 09:40:59;;;;;;;46.72;8.13;;;;;;;;;;5052936;28;20037;-66
2022/08/22 09:43:33;;;;;;;26.40;5.75;;;;;;;;;;5049910;28;20510;-65
2022/08/22 09:46:22;;;;;;;27.90;7.18;;;;;;;;;;5050042;28;20045;-66
2022/08/22 09:49:07;;;;;;;25.88;6.43;;;;;;;;;;5049540;28;20053;-66
2022/08/22 09:51:37;;;;;;;121.93;12.05;;;;;;;;;;5049848;28;20117;-65
2022/08/22 09:54:22;;;;;;;24.83;6.72;;;;;;;;;;5049789;28;20436;-66
2022/08/22 09:57:18;;;;;;;39.92;7.85;;;;;;;;;;5049648;28;20049;-66
2022/08/22 10:00:00;;;;;;;37.10;7.72;;;;;;;;;;5049600;28;20091;-65
2022/08/22 10:02:47;;;;;;;42.22;8.57;;;;;;;;;;5051068;28;20056;-66
2022/08/22 10:05:15;;;;;;;26.63;6.57;;;;;;;;;;5050042;28;20463;-66
2022/08/22 10:08:14;;;;;;;26.33;7.03;;;;;;;;;;5053790;28;20050;-66
2022/08/22 10:10:48;;;;;;;60.70;9.65;;;;;;;;;;5051040;28;20069;-66
2022/08/22 10:13:33;;;;;;;17.90;5.40;;;;;;;;;;5044764;28;20045;-66
2022/08/22 10:16:09;;;;;;;107.22;13.05;;;;;;;;;;5044506;28;20099;-66
2022/08/22 10:18:40;;;;;;;59.80;9.38;;;;;;;;;;5048104;28;20498;-65
2022/08/22 10:21:19;;;;;;;25.88;6.38;;;;;;;;;;5049439;28;20040;-66
2022/08/22 10:23:56;;;;;;;28.40;6.85;;;;;;;;;;5049308;28;20037;-66
2022/08/22 10:26:27;;;;;;;25.48;6.40;;;;;;;;;;5051431;28;20041;-65
2022/08/22 10:29:09;;;;;;;74.72;8.77;;;;;;;;;;5052416;28;20579;-65
2022/08/22 10:31:40;;;;;;;41.80;7.00;;;;;;;;;;5048709;28;20464;-65
2022/08/22 10:34:27;;;;;;;44.63;7.20;;;;;;;;;;5047794;28;20557;-65
2022/08/22 10:36:57;;;;;;;112.47;13.27;;;;;;;;;;5044545;28;20045;-65
2022/08/22 10:39:25;;;;;;;36.20;7.43;;;;;;;;;;5049042;28;20453;-65
2022/08/22 10:42:08;;;;;;;41.42;8.10;;;;;;;;;;5048467;28;20069;-65
2022/08/22 10:45:04;;;;;;;52.33;8.05;;;;;;;;;;5049181;28;20053;-67
2022/08/22 10:47:40;;;;;;;47.22;7.22;;;;;;;;;;5039856;28;20089;-65
2022/08/22 10:50:07;;;;;;;37.17;7.38;;;;;;;;;;5049334;28;20072;-65
2022/08/22 10:52:45;;;;;;;17.73;5.88;;;;;;;;;;5050236;28;20051;-65
2022/08/22 10:55:12;;;;;;;34.55;6.82;;;;;;;;;;5049135;28;20037;-65
2022/08/22 10:57:44;;;;;;;35.05;7.38;;;;;;;;;;5047982;28;20079;-65
2022/08/22 11:00:27;;;;;;;19.55;5.65;;;;;;;;;;5048476;28;20041;-65
2022/08/22 11:03:01;;;;;;;37.42;8.00;;;;;;;;;;5048369;28;20137;-65
2022/08/22 11:05:33;;;;;;;49.90;8.48;;;;;;;;;;5049902;28;20123;-65
2022/08/22 11:08:18;;;;;;;38.80;7.40;;;;;;;;;;5052729;28;20159;-65
2022/08/22 11:10:47;;;;;;;37.05;6.63;;;;;;;;;;5050524;28;20279;-65
2022/08/22 11:13:25;;;;;;;57.90;9.35;;;;;;;;;;5047339;28;20486;-65
2022/08/22 11:15:51;;;;;;;33.78;6.63;;;;;;;;;;5048192;28;20041;-65
2022/08/22 11:18:32;;;;;;;33.15;7.30;;;;;;;;;;5048385;28;20070;-65
2022/08/22 11:21:03;;;;;;;33.17;6.80;;;;;;;;;;5048423;28;20470;-65
2022/08/22 11:23:32;;;;;;;;;;;;;;;;;;5049439;28;20041;-65
2022/08/22 11:26:02;;;;;;;40.08;7.75;;;;;;;;;;5051711;28;19932;-64
2022/08/22 11:28:36;;;;;;;43.78;8.05;;;;;;;;;;5046969;28;20043;-65
2022/08/22 11:31:21;;;;;;;45.42;7.35;;;;;;;;;;5048149;28;20041;-65
2022/08/22 11:33:56;;;;;;;19.98;5.93;;;;;;;;;;5047420;28;20045;-65
2022/08/22 11:36:25;;;;;;;242.95;22.42;;;;;;;;;;5048383;28;20057;-65
2022/08/22 11:39:04;;;;;;;23.83;6.10;;;;;;;;;;5048740;28;20041;-65
2022/08/22 11:42:04;;;;;;;36.13;7.38;;;;;;;;;;5046961;28;20041;-65
2022/08/22 11:44:34;;;;;;;24.92;6.53;;;;;;;;;;5025916;28;20053;-65
2022/08/22 11:47:19;;;;;;;40.70;7.20;;;;;;;;;;5014505;28;20060;-65
2022/08/22 11:50:04;;;;;;;28.55;6.63;;;;;;;;;;4992112;28;20046;-65
2022/08/22 11:52:52;;;;;;;34.42;7.65;;;;;;;;;;4992265;28;20137;-65
2022/08/22 11:55:34;;;;;;;100.57;11.43;;;;;;;;;;4993731;28;20686;-65
2022/08/22 11:58:03;;;;;;;29.13;6.10;;;;;;;;;;4993624;28;20117;-65
2022/08/22 12:00:30;;;;;;;58.00;7.55;;;;;;;;;;4994030;28;20045;-65
2022/08/22 12:03:11;;;;;;;41.78;8.50;;;;;;;;;;4993459;28;20045;-65
2022/08/22 12:05:43;;;;;;;151.57;13.13;;;;;;;;;;5000065;28;20038;-65
2022/08/22 12:08:14;;;;;;;32.42;7.13;;;;;;;;;;4993443;28;20759;-64
2022/08/22 12:10:50;;;;;;;19.05;5.70;;;;;;;;;;4992510;28;20169;-65
2022/08/22 12:13:39;;;;;;;150.20;16.65;;;;;;;;;;4992863;28;20055;-65
2022/08/22 12:16:12;;;;;;;57.78;8.98;;;;;;;;;;4993537;28;20499;-65
2022/08/22 12:18:49;;;;;;;48.47;8.93;;;;;;;;;;4993517;28;20594;-65
2022/08/22 12:21:18;;;;;;;20.02;6.22;;;;;;;;;;5011459;28;20061;-65
2022/08/22 12:24:02;;;;;;;28.85;6.75;;;;;;;;;;5046815;28;20132;-65
2022/08/22 12:26:49;;;;;;;33.70;7.47;;;;;;;;;;5048784;28;20200;-64
2022/08/22 12:29:35;;;;;;;342.08;27.60;;;;;;;;;;5050000;28;20397;-65
2022/08/22 12:32:13;;;;;;;738.30;68.10;;;;;;;;;;5046662;28;20036;-65
2022/08/22 12:34:43;;;;;;;52.65;7.95;;;;;;;;;;5048967;28;20041;-65
2022/08/22 12:37:15;;;;;;;40.58;8.07;;;;;;;;;;5043191;28;20041;-65
2022/08/22 12:39:55;;;;;;;49.97;8.27;;;;;;;;;;5046621;28;20055;-65
2022/08/22 12:42:34;;;;;;;35.38;7.03;;;;;;;;;;5046408;28;20090;-65
2022/08/22 12:45:21;;;;;;;47.95;8.85;;;;;;;;;;5045277;28;20067;-64
2022/08/22 12:48:10;;;;;;;44.35;7.78;;;;;;;;;;5005972;28;20170;-65
2022/08/22 12:50:54;;;;;;;33.60;7.90;;;;;;;;;;4992956;28;20133;-65
2022/08/22 12:53:20;;;;;;;54.65;10.00;;;;;;;;;;4992666;28;20587;-65
2022/08/22 12:56:07;;;;;;;39.55;7.80;;;;;;;;;;4991825;28;20483;-65
2022/08/22 12:58:55;;;;;;;56.80;9.02;;;;;;;;;;4991741;28;20137;-64
2022/08/22 13:01:23;;;;;;;112.70;13.55;;;;;;;;;;4991164;28;20088;-65
2022/08/22 13:04:02;;;;;;;43.50;8.05;;;;;;;;;;4990839;28;20057;-65
2022/08/22 13:06:40;;;;;;;35.83;8.10;;;;;;;;;;4996162;28;20133;-65
2022/08/22 13:09:34;;;;;;;35.75;7.65;;;;;;;;;;4990632;28;20407;-65
2022/08/22 13:12:04;;;;;;;34.35;7.15;;;;;;;;;;4990413;28;20082;-65
2022/08/22 13:14:32;;;;;;;42.05;7.95;;;;;;;;;;4990635;28;20049;-65
2022/08/22 13:17:02;;;;;;;22.88;6.00;;;;;;;;;;4990209;28;20044;-65
2022/08/22 13:19:52;;;;;;;27.58;7.05;;;;;;;;;;4991482;28;20054;-65
2022/08/22 13:22:22;;;;;;;26.50;6.82;;;;;;;;;;5019256;28;20041;-66
2022/08/22 13:24:54;;;;;;;39.40;7.45;;;;;;;;;;5027732;28;20056;-64
2022/08/22 13:27:23;;;;;;;24.92;6.43;;;;;;;;;;5045770;28;20076;-65
2022/08/22 13:29:57;;;;;;;33.75;7.22;;;;;;;;;;5046162;28;20044;-64
2022/08/22 13:32:36;;;;;;;119.45;12.70;;;;;;;;;;5048273;28;20040;-65
2022/08/22 13:35:04;;;;;;;21.50;6.03;;;;;;;;;;5046193;28;20108;-65
2022/08/22 13:37:35;;;;;;;42.78;8.25;;;;;;;;;;5044826;28;20444;-65
2022/08/22 13:40:04;;;;;;;27.55;6.80;;;;;;;;;;5045890;28;20124;-65
2022/08/22 13:42:35;;;;;;;22.27;6.78;;;;;;;;;;5045340;28;20449;-65
2022/08/22 13:45:11;;;;;;;37.63;6.72;;;;;;;;;;5045904;28;20536;-65
2022/08/22 13:47:45;;;;;;;18.50;5.57;;;;;;;;;;5046602;28;20049;-65
2022/08/22 13:50:17;;;;;;;39.55;8.13;;;;;;;;;;5046094;28;20058;-65
2022/08/22 13:52:44;;;;;;;29.10;6.85;;;;;;;;;;5047355;28;20051;-65
2022/08/22 13:55:20;;;;;;;34.55;7.22;;;;;;;;;;5045864;28;20504;-65
2022/08/22 13:58:04;;;;;;;27.30;6.78;;;;;;;;;;5045133;28;20037;-64
2022/08/22 14:01:06;;;;;;;32.45;7.13;;;;;;;;;;5045361;28;20037;-65
2022/08/22 14:03:53;;;;;;;22.85;5.90;;;;;;;;;;5028481;28;20135;-65
2022/08/22 14:06:35;;;;;;;332.77;26.73;;;;;;;;;;5045849;28;20467;-65
2022/08/22 14:09:36;;;;;;;76.47;9.52;;;;;;;;;;5045725;28;20549;-65
2022/08/22 14:12:08;;;;;;;25.58;6.70;;;;;;;;;;5035773;28;20161;-65
2022/08/22 14:14:39;;;;;;;29.95;6.93;;;;;;;;;;5045779;28;20418;-65
2022/08/22 14:17:13;;;;;;;64.32;9.63;;;;;;;;;;5046098;28;20040;-65
2022/08/22 14:19:45;;;;;;;28.80;6.55;;;;;;;;;;5052901;28;20052;-64
2022/08/22 14:22:27;;;;;;;17.67;6.15;;;;;;;;;;5048798;28;20040;-64
2022/08/22 14:25:00;;;;;;;31.42;6.32;;;;;;;;;;5049166;28;20037;-64
2022/08/22 14:27:47;;;;;;;24.70;6.45;;;;;;;;;;5049120;28;20505;-65
2022/08/22 14:30:17;;;;;;;32.20;7.60;;;;;;;;;;5048600;28;20099;-64
2022/08/22 14:32:56;;;;;;;28.58;6.65;;;;;;;;;;5048962;28;20505;-65
2022/08/22 14:35:29;;;;;;;93.93;11.50;;;;;;;;;;5045995;28;20493;-65
2022/08/22 14:38:15;;;;;;;17.88;5.90;;;;;;;;;;5053483;28;20076;-65
2022/08/22 14:40:43;;;;;;;25.60;6.65;;;;;;;;;;5049826;28;20132;-65
2022/08/22 14:43:28;;;;;;;26.10;6.40;;;;;;;;;;5048647;28;20505;-65
2022/08/22 14:46:00;;;;;;;65.85;9.00;;;;;;;;;;5048995;28;20041;-65
2022/08/22 14:48:31;;;;;;;27.70;7.00;;;;;;;;;;5048671;28;20071;-66
2022/08/22 14:51:16;;;;;;;36.17;7.30;;;;;;;;;;5048347;28;20063;-65
2022/08/22 14:53:43;;;;;;;134.43;13.23;;;;;;;;;;5048660;28;20055;-64
2022/08/22 14:56:20;;;;;;;34.35;7.53;;;;;;;;;;5053747;28;20120;-65
2022/08/22 14:59:01;;;;;;;275.10;21.42;;;;;;;;;;5050166;28;20037;-65
2022/08/22 15:01:30;;;;;;;55.35;10.10;;;;;;;;;;5048454;28;20112;-64
2022/08/22 15:04:06;;;;;;;32.92;6.65;;;;;;;;;;5048385;28;20045;-65
2022/08/22 15:06:35;;;;;;;26.40;6.47;;;;;;;;;;5047997;28;20037;-65
2022/08/22 15:09:05;;;;;;;153.43;14.90;;;;;;;;;;5048166;28;20060;-65
2022/08/22 15:11:34;;;;;;;29.92;6.88;;;;;;;;;;5049480;28;20500;-65
2022/08/22 15:14:20;;;;;;;21.67;6.13;;;;;;;;;;5051926;28;20045;-65